createdAt,value
2022-12-11T00:00:58.322Z,47.20
2022-12-11T00:05:20.484Z,51.40
2022-12-11T00:09:27.829Z,59.80
2022-12-11T00:13:35.793Z,56.90
2022-12-11T00:17:43.404Z,57.50
2022-12-11T00:21:51.813Z,48.80
2022-12-11T00:25:59.653Z,57.10
2022-12-11T00:30:09.881Z,51.50
2022-12-11T00:34:17.839Z,61.90
2022-12-11T00:38:25.601Z,69.40
2022-12-11T00:42:33.289Z,70.10
2022-12-11T00:46:41.143Z,48.30
2022-12-11T00:50:49.515Z,56.40
2022-12-11T00:54:59.668Z,51.80
2022-12-11T00:59:12.492Z,53.50
2022-12-11T01:03:20.375Z,36.90
2022-12-11T01:07:28.254Z,49.10
2022-12-11T01:11:35.391Z,62.00
2022-12-11T01:15:45.176Z,58.20
2022-12-11T01:19:52.882Z,41.80
2022-12-11T01:24:00.668Z,63.90
2022-12-11T01:28:08.496Z,54.00
2022-12-11T01:32:16.188Z,49.70
2022-12-11T01:36:24.685Z,51.70
2022-12-11T01:40:32.189Z,45.80
2022-12-11T01:45:19.596Z,44.20
2022-12-11T01:49:28.838Z,49.20
2022-12-11T01:53:39.182Z,38.90
2022-12-11T01:57:49.028Z,44.40
2022-12-11T02:01:59.278Z,46.20
2022-12-11T02:06:07.529Z,51.80
2022-12-11T02:10:15.537Z,46.30
2022-12-11T02:14:30.668Z,51.10
2022-12-11T02:18:43.901Z,55.40
2022-12-11T02:23:08.073Z,50.10
2022-12-11T02:27:29.143Z,48.60
2022-12-11T02:31:40.390Z,44.60
2022-12-11T02:35:49.717Z,53.50
2022-12-11T02:39:59.091Z,60.50
2022-12-11T02:44:08.448Z,41.40
2022-12-11T02:48:17.068Z,39.60
2022-12-11T02:52:26.152Z,46.40
2022-12-11T02:56:38.813Z,46.90
2022-12-11T03:00:47.095Z,55.60
2022-12-11T03:04:54.866Z,46.00
2022-12-11T03:09:03.068Z,39.40
2022-12-11T03:13:10.309Z,48.90
2022-12-11T03:17:21.078Z,50.10
2022-12-11T03:21:33.806Z,40.90
2022-12-11T03:25:45.082Z,48.00
2022-12-11T03:29:57.043Z,50.40
2022-12-11T03:34:09.620Z,41.80
2022-12-11T03:38:20.357Z,40.90
2022-12-11T03:42:28.324Z,46.30
2022-12-11T03:46:38.678Z,39.10
2022-12-11T03:50:46.600Z,43.60
2022-12-11T03:54:54.403Z,39.20
2022-12-11T03:59:02.631Z,45.00
2022-12-11T04:03:18.157Z,44.70
2022-12-11T04:07:26.813Z,49.00
2022-12-11T04:11:37.133Z,41.70
2022-12-11T04:15:44.960Z,33.60
2022-12-11T04:20:10.270Z,41.70
2022-12-11T04:24:17.905Z,45.50
2022-12-11T04:28:25.242Z,37.20
2022-12-11T04:32:33.210Z,40.50
2022-12-11T04:36:41.742Z,35.90
2022-12-11T04:40:49.691Z,26.70
2022-12-11T04:44:57.723Z,34.70
2022-12-11T04:49:05.727Z,37.80
2022-12-11T04:53:13.983Z,36.10
2022-12-11T04:57:22.068Z,35.50
2022-12-11T05:01:29.551Z,36.30
2022-12-11T05:05:36.953Z,37.20
2022-12-11T05:09:44.492Z,29.00
2022-12-11T05:13:52.069Z,37.00
2022-12-11T05:18:00.165Z,32.20
2022-12-11T05:22:07.740Z,30.60
2022-12-11T05:26:17.129Z,39.10
2022-12-11T05:30:24.584Z,31.60
2022-12-11T05:34:31.697Z,26.40
2022-12-11T05:38:38.784Z,24.20
2022-12-11T05:42:47.835Z,25.50
2022-12-11T05:46:56.414Z,32.80
2022-12-11T05:51:05.837Z,34.00
2022-12-11T05:55:14.264Z,28.10
2022-12-11T05:59:21.970Z,36.00
2022-12-11T06:03:29.517Z,32.10
2022-12-11T06:07:37.710Z,31.00
2022-12-11T06:11:45.041Z,26.00
2022-12-11T06:15:53.255Z,23.00
2022-12-11T06:20:00.754Z,24.50
2022-12-11T06:24:14.762Z,28.30
2022-12-11T06:28:22.712Z,32.10
2022-12-11T06:32:31.126Z,29.60
2022-12-11T06:36:38.668Z,35.70
2022-12-11T06:40:46.177Z,22.90
2022-12-11T06:44:54.735Z,28.30
2022-12-11T06:49:02.525Z,27.40
2022-12-11T06:53:11.288Z,34.40
2022-12-11T06:57:20.072Z,27.40
2022-12-11T07:01:30.113Z,29.40
2022-12-11T07:05:38.075Z,24.20
2022-12-11T07:09:45.929Z,29.20
2022-12-11T07:13:53.896Z,32.70
2022-12-11T07:18:01.381Z,33.10
2022-12-11T07:22:09.073Z,28.60
2022-12-11T07:26:19.433Z,37.70
2022-12-11T07:30:27.344Z,38.20
2022-12-11T07:34:34.944Z,32.90
2022-12-11T07:38:46.578Z,31.20
2022-12-11T07:42:54.026Z,25.00
2022-12-11T07:47:01.622Z,32.10
2022-12-11T07:51:15.176Z,35.50
2022-12-11T07:55:22.601Z,32.50
2022-12-11T07:59:30.717Z,29.20
2022-12-11T08:03:38.626Z,28.80
2022-12-11T08:07:45.976Z,32.80
2022-12-11T08:11:54.714Z,30.50
2022-12-11T08:16:04.154Z,24.00
2022-12-11T08:20:13.260Z,28.20
2022-12-11T08:24:21.244Z,30.20
2022-12-11T08:28:29.475Z,25.80
2022-12-11T08:32:36.799Z,19.50
2022-12-11T08:36:44.952Z,26.40
2022-12-11T08:40:56.527Z,28.40
2022-12-11T08:45:05.016Z,26.70
2022-12-11T08:49:12.792Z,24.70
2022-12-11T08:53:20.485Z,28.50
2022-12-11T08:57:28.074Z,29.10
2022-12-11T09:01:36.329Z,20.50
2022-12-11T09:05:44.318Z,23.70
2022-12-11T09:09:51.770Z,24.00
2022-12-11T09:14:05.177Z,25.00
2022-12-11T09:18:15.395Z,25.10
2022-12-11T09:22:22.839Z,28.50
2022-12-11T09:26:31.304Z,22.80
2022-12-11T09:30:38.900Z,23.80
2022-12-11T09:34:47.063Z,17.70
2022-12-11T09:38:55.332Z,21.30
2022-12-11T09:43:08.456Z,19.70
2022-12-11T09:47:22.409Z,23.40
2022-12-11T09:51:32.313Z,21.40
2022-12-11T09:55:48.286Z,24.10
2022-12-11T10:00:09.332Z,17.90
2022-12-11T10:04:31.487Z,28.80
2022-12-11T10:08:45.634Z,18.50
2022-12-11T10:13:00.161Z,20.20
2022-12-11T10:17:12.612Z,21.60
2022-12-11T10:21:21.539Z,24.90
2022-12-11T10:25:31.376Z,29.00
2022-12-11T10:29:38.925Z,27.00
2022-12-11T10:33:59.907Z,27.70
2022-12-11T10:38:17.379Z,27.90
2022-12-11T10:42:25.900Z,29.40
2022-12-11T10:46:34.104Z,23.30
2022-12-11T10:50:44.780Z,21.00
2022-12-11T10:54:59.439Z,17.40
2022-12-11T10:59:07.567Z,26.30
2022-12-11T11:03:25.366Z,32.00
2022-12-11T11:07:34.608Z,28.40
2022-12-11T11:11:50.779Z,19.20
2022-12-11T11:16:04.498Z,20.70
2022-12-11T11:20:19.070Z,17.10
2022-12-11T11:24:32.131Z,17.10
2022-12-11T11:28:41.739Z,24.60
2022-12-11T11:32:50.521Z,24.20
2022-12-11T11:37:06.214Z,19.40
2022-12-11T11:41:16.989Z,14.70
2022-12-11T11:45:28.589Z,21.00
2022-12-11T11:49:46.929Z,23.90
2022-12-11T11:53:58.957Z,19.30
2022-12-11T11:58:11.647Z,16.30
2022-12-11T12:02:21.557Z,19.20
2022-12-11T12:06:38.997Z,19.20
2022-12-11T12:10:52.690Z,30.70
2022-12-11T12:15:10.885Z,18.40
2022-12-11T12:19:26.505Z,19.00
2022-12-11T12:23:54.313Z,13.00
2022-12-11T12:28:12.023Z,18.50
2022-12-11T12:32:25.785Z,21.00
2022-12-11T12:36:42.273Z,19.10
2022-12-11T12:41:06.445Z,20.40
2022-12-11T12:45:23.876Z,22.00
2022-12-11T12:49:43.346Z,19.30
2022-12-11T12:53:57.163Z,20.70
2022-12-11T12:58:06.704Z,17.80
2022-12-11T13:02:18.466Z,26.90
2022-12-11T13:06:34.756Z,27.20
2022-12-11T13:10:44.821Z,22.80
2022-12-11T13:14:59.315Z,22.10
2022-12-11T13:19:22.355Z,22.80
2022-12-11T13:23:34.766Z,19.30
2022-12-11T13:27:43.799Z,19.40
2022-12-11T13:32:00.410Z,29.90
2022-12-11T13:36:27.437Z,25.10
2022-12-11T13:40:44.890Z,25.30
2022-12-11T13:44:52.545Z,24.20
2022-12-11T13:49:02.780Z,21.10
2022-12-11T13:53:15.643Z,20.50
2022-12-11T13:57:25.947Z,20.70
2022-12-11T14:01:36.222Z,34.20
2022-12-11T14:05:45.295Z,34.70
2022-12-11T14:09:52.553Z,30.20
2022-12-11T14:14:01.843Z,25.70
2022-12-11T14:18:10.698Z,22.60
2022-12-11T14:22:22.803Z,19.90
2022-12-11T14:26:32.109Z,21.80
2022-12-11T14:30:41.409Z,27.50
2022-12-11T14:34:49.513Z,21.90
2022-12-11T14:38:58.948Z,22.40
2022-12-11T14:43:11.111Z,25.80
2022-12-11T14:47:21.546Z,19.60
2022-12-11T14:51:32.700Z,20.50
2022-12-11T14:55:41.234Z,21.80
2022-12-11T14:59:50.579Z,25.30
2022-12-11T15:04:09.029Z,25.40
2022-12-11T15:08:26.300Z,19.50
2022-12-11T15:12:35.178Z,22.60
2022-12-11T15:16:44.026Z,22.00
2022-12-11T15:20:55.695Z,19.50
2022-12-11T15:25:04.173Z,17.20
2022-12-11T15:29:36.379Z,26.30
2022-12-11T15:33:50.360Z,27.70
2022-12-11T15:37:59.774Z,21.50
2022-12-11T15:42:08.397Z,19.50
2022-12-11T15:46:16.041Z,20.30
2022-12-11T15:50:25.541Z,20.00
2022-12-11T15:54:34.873Z,17.60
2022-12-11T15:58:42.599Z,19.70
2022-12-11T16:02:52.031Z,24.60
2022-12-11T16:07:03.843Z,23.20
2022-12-11T16:11:14.581Z,19.30
2022-12-11T16:15:24.080Z,14.10
2022-12-11T16:19:32.303Z,17.40
2022-12-11T16:23:40.403Z,21.50
2022-12-11T16:27:48.500Z,28.70
2022-12-11T16:31:56.335Z,33.80
2022-12-11T16:36:04.886Z,24.50
2022-12-11T16:40:14.590Z,15.80
2022-12-11T16:44:24.863Z,19.50
2022-12-11T16:48:33.037Z,17.90
2022-12-11T16:52:40.747Z,18.10
2022-12-11T16:56:48.514Z,16.20
2022-12-11T17:01:02.228Z,16.80
2022-12-11T17:05:11.072Z,25.30
2022-12-11T17:09:19.114Z,23.90
2022-12-11T17:13:26.369Z,31.30
2022-12-11T17:17:36.538Z,25.90
2022-12-11T17:21:49.883Z,22.90
2022-12-11T17:25:59.422Z,19.90
2022-12-11T17:30:08.212Z,17.80
2022-12-11T17:34:17.213Z,23.40
2022-12-11T17:38:25.561Z,20.70
2022-12-11T17:42:33.936Z,24.90
2022-12-11T17:46:42.264Z,21.30
2022-12-11T17:50:51.039Z,16.30
2022-12-11T17:54:58.750Z,21.90
2022-12-11T17:59:06.679Z,27.80
2022-12-11T18:03:15.056Z,30.60
2022-12-11T18:07:23.006Z,25.70
2022-12-11T18:11:30.969Z,20.00
2022-12-11T18:15:39.246Z,23.40
2022-12-11T18:19:46.799Z,26.40
2022-12-11T18:23:54.950Z,15.30
2022-12-11T18:28:03.002Z,17.60
2022-12-11T18:32:11.186Z,31.20
2022-12-11T18:36:20.299Z,27.90
2022-12-11T18:40:28.905Z,25.70
2022-12-11T18:44:38.002Z,26.40
2022-12-11T18:48:48.070Z,21.80
2022-12-11T18:53:00.177Z,24.80
2022-12-11T18:57:08.487Z,28.70
2022-12-11T19:01:19.475Z,24.70
2022-12-11T19:05:28.122Z,35.30
2022-12-11T19:09:38.509Z,22.80
2022-12-11T19:13:46.973Z,25.30
2022-12-11T19:17:54.645Z,21.90
2022-12-11T19:22:04.785Z,22.70
2022-12-11T19:26:16.018Z,22.90
2022-12-11T19:30:24.097Z,26.20
2022-12-11T19:34:32.317Z,23.90
2022-12-11T19:38:41.019Z,25.10
2022-12-11T19:42:48.887Z,25.90
2022-12-11T19:46:56.608Z,25.30
2022-12-11T19:51:08.564Z,22.20
2022-12-11T19:55:16.754Z,21.90
2022-12-11T19:59:24.317Z,29.80
2022-12-11T20:03:32.431Z,35.80
2022-12-11T20:07:40.223Z,32.80
2022-12-11T20:11:48.750Z,24.60
2022-12-11T20:15:56.835Z,24.90
2022-12-11T20:20:04.782Z,25.20
2022-12-11T20:24:12.926Z,32.30
2022-12-11T20:28:21.514Z,25.40
2022-12-11T20:32:29.589Z,30.30
2022-12-11T20:36:40.383Z,28.50
2022-12-11T20:40:50.832Z,25.10
2022-12-11T20:44:58.953Z,23.10
2022-12-11T20:49:12.792Z,26.90
2022-12-11T20:53:21.786Z,24.70
2022-12-11T20:57:29.608Z,29.90
2022-12-11T21:01:38.587Z,28.40
2022-12-11T21:05:47.028Z,28.90
2022-12-11T21:09:54.996Z,23.40
2022-12-11T21:14:02.879Z,16.80
2022-12-11T21:18:11.526Z,21.90
2022-12-11T21:22:19.967Z,19.40
2022-12-11T21:26:28.496Z,29.10
2022-12-11T21:30:36.451Z,25.50
2022-12-11T21:34:44.331Z,27.60
2022-12-11T21:38:54.370Z,29.70
2022-12-11T21:43:02.174Z,30.80
2022-12-11T21:47:09.985Z,24.50
2022-12-11T21:51:21.020Z,23.50
2022-12-11T21:55:30.562Z,20.50
2022-12-11T21:59:38.566Z,22.10
2022-12-11T22:03:46.660Z,19.00
2022-12-11T22:07:54.281Z,27.60
2022-12-11T22:12:02.312Z,21.40
2022-12-11T22:16:09.930Z,23.70
2022-12-11T22:20:18.339Z,25.70
2022-12-11T22:24:26.580Z,27.10
2022-12-11T22:28:34.493Z,26.50
2022-12-11T22:32:43.529Z,22.10
2022-12-11T22:36:51.740Z,29.70
2022-12-11T22:41:00.015Z,23.90
2022-12-11T22:45:09.515Z,19.00
2022-12-11T22:49:17.325Z,19.00
2022-12-11T22:53:25.490Z,28.10
2022-12-11T22:57:33.618Z,31.80
2022-12-11T23:01:41.353Z,26.90
2022-12-11T23:05:49.228Z,28.30
2022-12-11T23:09:56.935Z,31.80
2022-12-11T23:14:04.768Z,34.80
2022-12-11T23:18:12.486Z,28.80
2022-12-11T23:22:20.007Z,26.80
2022-12-11T23:26:28.654Z,21.40
2022-12-11T23:30:36.483Z,23.10
2022-12-11T23:34:43.855Z,31.90
2022-12-11T23:38:54.735Z,27.80
2022-12-11T23:43:03.696Z,26.00
2022-12-11T23:47:11.660Z,29.20
2022-12-11T23:51:21.187Z,28.40
2022-12-11T23:55:30.012Z,28.70
2022-12-11T23:59:37.882Z,28.60
